Time;durP1;ratioP1;P1;durP2;ratioP2;P2;SDS_P1;SDS_P2;PMS_P1;PMS_P2;Temp;Humidity;BMP_temperature;BMP_pressure;BME280_temperature;BME280_humidity;BME280_pressure;Samples;Min_cycle;Max_cycle;Signal;HPM_P1;HPM_P2
2022/07/13 00:00:15;;;;;;;5.93;2.42;;;16.60;99.90;;;;;;5095632;28;20032;-78
2022/07/13 00:02:41;;;;;;;5.10;2.42;;;16.60;99.90;;;;;;5096040;28;20044;-82
2022/07/13 00:05:07;;;;;;;4.68;2.45;;;16.60;99.90;;;;;;5096440;28;20362;-81
2022/07/13 00:07:34;;;;;;;5.45;2.50;;;16.60;99.90;;;;;;5095433;28;20028;-79
2022/07/13 00:10:00;;;;;;;4.00;2.25;;;16.60;99.90;;;;;;5095452;28;20489;-82
2022/07/13 00:12:26;;;;;;;2.67;1.83;;;16.60;99.90;;;;;;5095342;28;20021;-81
2022/07/13 00:14:51;;;;;;;7.63;2.70;;;16.50;99.90;;;;;;5095780;28;20024;-82
2022/07/13 00:17:17;;;;;;;9.27;2.63;;;16.40;99.90;;;;;;5093999;28;20028;-81
2022/07/13 00:19:44;;;;;;;3.25;2.40;;;16.40;99.90;;;;;;5093883;28;20063;-80
2022/07/13 00:22:09;;;;;;;5.15;2.38;;;16.40;99.90;;;;;;5074974;28;20473;-76
2022/07/13 00:24:35;;;;;;;3.22;2.03;;;16.30;99.90;;;;;;5094099;28;20079;-70
2022/07/13 00:27:01;;;;;;;4.85;2.75;;;16.20;99.90;;;;;;5093813;28;20020;-79
2022/07/13 00:29:27;;;;;;;4.93;2.20;;;16.20;99.90;;;;;;5075147;28;20076;-80
2022/07/13 00:31:53;;;;;;;3.63;2.50;;;16.20;99.90;;;;;;5093494;28;20073;-65
2022/07/13 00:34:19;;;;;;;6.15;2.85;;;16.10;99.90;;;;;;5058067;28;20060;-79
2022/07/13 00:36:44;;;;;;;3.20;2.53;;;16.10;99.90;;;;;;5094454;28;20051;-62
2022/07/13 00:39:10;;;;;;;6.97;2.65;;;16.10;99.90;;;;;;5093892;28;20408;-66
2022/07/13 00:41:43;;;;;;;7.15;3.35;;;16.10;99.90;;;;;;5075514;28;20032;-73
2022/07/13 00:44:09;;;;;;;;;;;16.10;99.90;;;;;;5093688;28;20035;-81
2022/07/13 00:46:36;;;;;;;5.35;3.40;;;16.10;99.90;;;;;;5094104;28;20000;-77
2022/07/13 00:49:04;;;;;;;7.40;3.50;;;16.10;99.90;;;;;;5092966;28;20024;-71
2022/07/13 00:51:31;;;;;;;10.63;3.47;;;16.00;99.90;;;;;;5093264;28;20028;-76
2022/07/13 00:53:59;;;;;;;5.38;2.90;;;16.10;99.90;;;;;;5092954;28;20164;-82
2022/07/13 00:56:26;;;;;;;6.78;3.45;;;16.00;99.90;;;;;;5093049;28;20031;-81
2022/07/13 00:58:52;;;;;;;12.57;3.40;;;16.10;99.90;;;;;;5093507;28;20040;-78
2022/07/13 01:01:18;;;;;;;4.47;2.70;;;16.00;99.90;;;;;;5072858;28;20048;-81
2022/07/13 01:03:44;;;;;;;5.90;2.88;;;16.00;99.90;;;;;;5093182;28;20039;-81
2022/07/13 01:06:11;;;;;;;10.68;3.47;;;15.90;99.90;;;;;;5092239;28;20027;-80
2022/07/13 01:08:36;;;;;;;4.82;3.22;;;15.90;99.90;;;;;;5092659;28;20028;-81
2022/07/13 01:11:02;;;;;;;4.88;2.75;;;15.90;99.90;;;;;;5092517;28;20008;-76
2022/07/13 01:13:29;;;;;;;7.30;3.10;;;15.80;99.90;;;;;;5092778;28;20466;-81
2022/07/13 01:15:55;;;;;;;7.63;3.40;;;15.80;99.90;;;;;;5092588;28;21568;-81
2022/07/13 01:18:21;;;;;;;3.97;2.30;;;15.80;99.90;;;;;;5092471;28;20035;-67
2022/07/13 01:20:48;;;;;;;7.25;3.42;;;15.70;99.90;;;;;;5092852;28;20028;-76
2022/07/13 01:23:17;;;;;;;7.45;2.90;;;15.80;99.90;;;;;;5092916;28;20490;-82
2022/07/13 01:25:43;;;;;;;6.68;2.72;;;15.70;99.90;;;;;;5093821;28;20055;-71
2022/07/13 01:28:12;;;;;;;6.53;3.08;;;15.70;99.90;;;;;;5076016;28;20028;-82
2022/07/13 01:30:38;;;;;;;6.75;3.15;;;15.70;99.90;;;;;;5076065;28;20047;-79
2022/07/13 01:33:04;;;;;;;6.57;3.15;;;15.70;99.90;;;;;;5075491;28;20420;-73
2022/07/13 01:35:30;;;;;;;7.95;3.83;;;15.60;99.90;;;;;;5094172;28;20028;-82
2022/07/13 01:37:56;;;;;;;7.75;3.38;;;15.60;99.90;;;;;;5094534;28;20024;-78
2022/07/13 01:40:22;;;;;;;4.75;2.97;;;15.70;99.90;;;;;;5075737;28;20085;-71
2022/07/13 01:42:52;;;;;;;10.23;3.00;;;15.70;99.90;;;;;;5093576;28;20031;-79
2022/07/13 01:45:22;;;;;;;8.13;3.13;;;15.60;99.90;;;;;;5075887;28;20401;-82
2022/07/13 01:47:52;;;;;;;9.67;4.23;;;15.60;99.90;;;;;;5075973;28;20478;-79
2022/07/13 01:50:20;;;;;;;7.68;3.95;;;15.60;99.90;;;;;;5093490;28;20043;-82
2022/07/13 01:52:47;;;;;;;7.15;3.65;;;15.60;99.90;;;;;;5075557;28;20028;-79
2022/07/13 01:55:13;;;;;;;6.32;3.25;;;15.50;99.90;;;;;;5075379;28;20020;-81
2022/07/13 01:57:42;;;;;;;4.78;2.90;;;15.50;99.90;;;;;;5076118;28;20040;-80
2022/07/13 02:00:16;;;;;;;4.10;2.83;;;15.60;99.90;;;;;;5074939;28;20021;-80
2022/07/13 02:02:46;;;;;;;4.20;3.08;;;15.50;99.90;;;;;;5074906;28;20498;-75
2022/07/13 02:05:17;;;;;;;5.00;2.75;;;15.40;99.90;;;;;;5076026;28;20478;-80
2022/07/13 02:07:44;;;;;;;4.97;2.72;;;15.40;99.90;;;;;;5093674;28;20035;-78
2022/07/13 02:10:11;;;;;;;6.40;2.97;;;15.40;99.90;;;;;;5075053;28;20020;-79
2022/07/13 02:12:39;;;;;;;7.43;3.13;;;15.40;99.90;;;;;;5075155;28;20477;-79
2022/07/13 02:15:07;;;;;;;5.53;2.70;;;15.40;99.90;;;;;;5074903;28;20119;-82
2022/07/13 02:17:33;;;;;;;5.20;2.63;;;15.40;99.90;;;;;;5075596;28;20050;-82
2022/07/13 02:19:59;;;;;;;6.38;3.33;;;15.40;99.90;;;;;;5093441;28;20451;-81
2022/07/13 02:22:25;;;;;;;7.20;3.33;;;15.30;99.90;;;;;;5074893;28;20044;-71
2022/07/13 02:24:50;;;;;;;6.63;3.20;;;15.40;99.90;;;;;;5092691;28;20420;-82
2022/07/13 02:27:16;;;;;;;5.78;2.65;;;15.30;99.90;;;;;;5093873;28;20032;-81
2022/07/13 02:29:42;;;;;;;5.10;2.97;;;15.30;99.90;;;;;;5074077;28;20390;-82
2022/07/13 02:32:08;;;;;;;5.88;2.72;;;15.20;99.90;;;;;;5092804;28;20031;-77
2022/07/13 02:34:34;;;;;;;7.07;2.42;;;15.20;99.90;;;;;;5092594;28;20378;-79
2022/07/13 02:37:00;;;;;;;3.42;2.45;;;15.20;99.90;;;;;;5074505;28;20066;-73
2022/07/13 02:39:26;;;;;;;6.95;3.22;;;15.20;99.90;;;;;;5092412;28;20052;-80
2022/07/13 02:41:52;;;;;;;5.10;3.10;;;15.10;99.90;;;;;;5074277;28;20482;-82
2022/07/13 02:44:18;;;;;;;5.30;2.85;;;15.20;99.90;;;;;;5092750;28;20099;-82
2022/07/13 02:46:43;;;;;;;6.22;3.58;;;15.20;99.90;;;;;;5092713;28;20517;-79
2022/07/13 02:49:10;;;;;;;7.70;2.92;;;15.10;99.90;;;;;;5073695;28;20020;-77
2022/07/13 02:51:36;;;;;;;5.75;2.78;;;15.20;99.90;;;;;;5074275;28;20032;-72
2022/07/13 02:54:03;;;;;;;3.00;2.35;;;15.20;99.90;;;;;;5074382;28;20020;-79
2022/07/13 02:56:30;;;;;;;6.45;3.67;;;15.20;99.90;;;;;;5073951;28;20445;-81
2022/07/13 02:58:56;;;;;;;4.75;2.97;;;15.20;99.90;;;;;;5092243;28;20103;-82
2022/07/13 03:01:22;;;;;;;4.63;2.80;;;15.20;99.90;;;;;;5074156;28;20127;-76
2022/07/13 03:03:48;;;;;;;5.10;2.53;;;15.30;99.90;;;;;;5074306;28;20130;-79
2022/07/13 03:06:15;;;;;;;5.63;2.70;;;15.20;99.90;;;;;;5073542;28;20032;-76
2022/07/13 03:08:41;;;;;;;4.25;2.42;;;15.20;99.90;;;;;;5073905;28;20094;-82
2022/07/13 03:11:07;;;;;;;3.90;2.65;;;15.30;99.90;;;;;;5074601;28;20025;-79
2022/07/13 03:13:34;;;;;;;8.60;3.00;;;15.30;99.90;;;;;;5073680;28;20027;-78
2022/07/13 03:16:00;;;;;;;5.93;2.60;;;15.30;99.90;;;;;;5092480;28;20035;-82
2022/07/13 03:18:27;;;;;;;5.03;3.25;;;15.40;99.90;;;;;;5071893;28;20034;-79
2022/07/13 03:20:53;;;;;;;7.43;3.10;;;15.30;99.90;;;;;;5072731;28;20044;-81
2022/07/13 03:23:19;;;;;;;6.95;3.85;;;15.40;99.90;;;;;;5073702;28;20021;-81
2022/07/13 03:25:45;;;;;;;4.80;2.85;;;15.40;99.90;;;;;;5091882;28;20032;-80
2022/07/13 03:28:11;;;;;;;5.25;2.72;;;15.50;99.90;;;;;;5074425;28;20540;-78
2022/07/13 03:30:37;;;;;;;4.18;2.72;;;15.60;99.90;;;;;;5076050;28;20024;-74
2022/07/13 03:33:03;;;;;;;5.93;3.35;;;15.60;99.90;;;;;;5093143;28;20127;-82
2022/07/13 03:35:29;;;;;;;5.57;3.25;;;15.70;99.90;;;;;;5073291;28;20028;-81
2022/07/13 03:37:56;;;;;;;10.35;3.50;;;15.70;99.90;;;;;;5073999;28;20055;-81
2022/07/13 03:40:26;;;;;;;5.88;3.20;;;15.70;99.90;;;;;;5073843;28;20388;-82
2022/07/13 03:42:52;;;;;;;12.80;3.65;;;15.80;99.90;;;;;;5073713;28;20031;-82
2022/07/13 03:45:18;;;;;;;7.82;3.67;;;15.80;99.90;;;;;;5072873;28;20114;-82
2022/07/13 03:47:45;;;;;;;14.95;4.25;;;15.80;99.90;;;;;;5073255;28;20020;-79
2022/07/13 03:50:12;;;;;;;6.43;3.38;;;15.90;99.90;;;;;;5070461;28;20028;-82
2022/07/13 03:52:38;;;;;;;7.93;3.58;;;16.70;99.90;;;;;;5073123;28;20382;-83
2022/07/13 03:55:04;;;;;;;8.73;3.72;;;17.50;99.90;;;;;;5073715;28;20031;-82
2022/07/13 03:57:31;;;;;;;6.43;3.33;;;18.40;99.90;;;;;;5073984;28;20086;-83
2022/07/13 03:59:57;;;;;;;6.65;3.38;;;19.10;99.90;;;;;;5074087;28;20466;-78
2022/07/13 04:02:24;;;;;;;10.23;3.63;;;19.40;98.50;;;;;;5056431;28;20045;-84
2022/07/13 04:04:50;;;;;;;5.60;3.05;;;20.30;96.80;;;;;;5050059;28;20045;-70
2022/07/13 04:07:19;;;;;;;12.57;4.22;;;20.90;94.30;;;;;;5049426;28;20056;-64
2022/07/13 04:09:45;;;;;;;6.18;3.63;;;21.40;91.60;;;;;;5049657;28;20387;-70
2022/07/13 04:12:11;;;;;;;7.00;3.22;;;21.80;87.60;;;;;;5049116;28;20108;-82
2022/07/13 04:14:38;;;;;;;7.28;3.45;;;22.10;85.90;;;;;;5049644;28;20025;-83
2022/07/13 04:17:03;;;;;;;5.57;2.90;;;22.60;85.30;;;;;;5050036;28;20021;-84
2022/07/13 04:19:31;;;;;;;4.25;2.40;;;22.60;84.00;;;;;;5049905;28;20116;-82
2022/07/13 04:21:57;;;;;;;6.10;3.08;;;22.70;82.70;;;;;;5047609;28;20087;-84
2022/07/13 04:24:24;;;;;;;11.23;3.22;;;23.30;81.70;;;;;;5052323;28;20021;-71
2022/07/13 04:26:52;;;;;;;8.48;2.75;;;23.40;79.00;;;;;;5053433;28;20075;-70
2022/07/13 04:29:18;;;;;;;3.70;2.90;;;24.00;78.40;;;;;;5053603;28;20025;-63
2022/07/13 04:31:44;;;;;;;5.97;2.65;;;24.80;76.50;;;;;;5055184;28;20064;-88
2022/07/13 04:34:11;;;;;;;5.65;3.15;;;25.00;75.50;;;;;;5059747;28;20104;-75
2022/07/13 04:36:42;;;;;;;5.90;2.72;;;;;;;;;;5073525;28;20029;-88
2022/07/13 04:39:08;;;;;;;5.95;2.42;;;25.00;73.60;;;;;;5073843;28;20025;-88
2022/07/13 04:41:35;;;;;;;4.10;2.47;;;;;;;;;;5072866;28;20033;-86
2022/07/13 04:44:01;;;;;;;2.50;2.15;;;25.40;73.40;;;;;;5074888;28;20059;-84
2022/07/13 04:46:27;;;;;;;3.33;2.10;;;25.60;77.70;;;;;;5070289;28;20033;-87
2022/07/13 04:48:55;;;;;;;3.33;2.85;;;25.00;73.10;;;;;;5071359;28;20097;-89
2022/07/13 04:51:22;;;;;;;4.38;2.42;;;;;;;;;;5061906;28;20071;-88
2022/07/13 04:53:49;;;;;;;4.20;2.53;;;;;;;;;;5057914;28;20025;-86
2022/07/13 04:56:15;;;;;;;2.20;2.00;;;25.50;71.70;;;;;;5054816;28;20033;-87
2022/07/13 04:58:42;;;;;;;5.40;1.70;;;25.60;75.40;;;;;;5055531;28;20112;-85
2022/07/13 05:01:08;;;;;;;2.90;1.95;;;25.80;71.80;;;;;;5057894;28;20100;-74
2022/07/13 05:03:36;;;;;;;3.92;1.80;;;25.80;72.10;;;;;;5076393;28;20516;-86
2022/07/13 05:06:03;;;;;;;2.88;1.70;;;24.00;74.20;;;;;;5076289;28;20482;-81
2022/07/13 05:08:29;;;;;;;2.72;1.73;;;23.10;75.40;;;;;;5076692;28;20032;-83
2022/07/13 05:10:55;;;;;;;2.88;1.67;;;22.20;77.50;;;;;;5074959;28;20410;-78
2022/07/13 05:13:21;;;;;;;5.10;1.88;;;21.80;80.00;;;;;;5075518;28;20494;-84
2022/07/13 05:15:49;;;;;;;2.63;1.90;;;21.70;82.10;;;;;;5074516;28;20089;-83
2022/07/13 05:18:17;;;;;;;3.58;2.10;;;21.50;82.40;;;;;;5075310;28;20092;-82
2022/07/13 05:20:43;;;;;;;4.10;2.05;;;21.10;84.30;;;;;;5075283;28;20115;-79
2022/07/13 05:23:08;;;;;;;6.88;2.10;;;21.20;85.60;;;;;;5074974;28;20108;-83
2022/07/13 05:25:36;;;;;;;5.28;1.90;;;21.20;86.70;;;;;;5075832;28;20028;-84
2022/07/13 05:28:03;;;;;;;2.85;1.80;;;20.90;86.30;;;;;;5074747;28;20390;-85
2022/07/13 05:30:30;;;;;;;4.85;2.20;;;21.10;87.40;;;;;;5075688;28;20021;-85
2022/07/13 05:32:56;;;;;;;3.45;2.35;;;21.10;88.70;;;;;;5075459;28;20172;-81
2022/07/13 05:35:22;;;;;;;6.20;2.00;;;21.10;87.10;;;;;;5074708;28;20086;-85
2022/07/13 05:37:49;;;;;;;1.92;1.58;;;21.20;88.60;;;;;;5075953;28;20169;-84
2022/07/13 05:40:16;;;;;;;2.47;1.80;;;21.30;88.80;;;;;;5075750;28;20111;-83
2022/07/13 05:42:42;;;;;;;5.22;1.73;;;21.10;87.60;;;;;;5075846;28;20050;-83
2022/07/13 05:45:09;;;;;;;2.80;1.90;;;21.10;88.30;;;;;;5075507;28;20016;-84
2022/07/13 05:47:37;;;;;;;3.28;1.90;;;21.30;90.00;;;;;;5092927;28;20024;-82
2022/07/13 05:50:03;;;;;;;4.72;1.95;;;21.10;89.00;;;;;;5094379;28;20509;-78
2022/07/13 05:52:30;;;;;;;2.80;1.77;;;21.00;90.50;;;;;;5075699;28;20035;-78
2022/07/13 05:54:56;;;;;;;5.15;2.17;;;21.00;91.60;;;;;;5075241;28;20036;-80
2022/07/13 05:57:22;;;;;;;2.88;2.03;;;21.00;90.00;;;;;;5073804;28;20154;-81
2022/07/13 05:59:47;;;;;;;5.47;1.92;;;21.10;91.20;;;;;;5091658;28;20028;-80
2022/07/13 06:02:13;;;;;;;3.40;2.00;;;21.30;92.00;;;;;;5092722;28;20409;-80
2022/07/13 06:04:39;;;;;;;5.45;2.13;;;21.50;91.50;;;;;;5080636;28;20085;-87
2022/07/13 06:07:05;;;;;;;2.78;2.08;;;21.50;91.20;;;;;;5091686;28;20569;-67
2022/07/13 06:09:31;;;;;;;3.75;1.70;;;21.60;90.70;;;;;;5087336;28;20032;-85
2022/07/13 06:11:59;;;;;;;3.22;2.45;;;21.90;90.80;;;;;;5091853;28;20059;-83
2022/07/13 06:14:25;;;;;;;5.07;2.03;;;21.70;88.30;;;;;;5088847;28;20115;-84
2022/07/13 06:16:51;;;;;;;8.60;2.13;;;21.90;87.50;;;;;;5093261;28;20536;-83
2022/07/13 06:19:17;;;;;;;1.95;1.48;;;21.90;88.50;;;;;;5093317;28;20020;-82
2022/07/13 06:21:43;;;;;;;3.55;1.85;;;22.00;86.90;;;;;;5092887;28;20058;-83
2022/07/13 06:24:09;;;;;;;6.13;2.00;;;22.10;89.30;;;;;;5081485;28;20429;-83
2022/07/13 06:26:34;;;;;;;4.53;2.00;;;22.10;85.40;;;;;;5090657;28;20035;-81
2022/07/13 06:29:00;;;;;;;7.38;2.65;;;22.10;89.20;;;;;;5074313;28;20477;-82
2022/07/13 06:31:26;;;;;;;4.30;2.00;;;22.00;85.50;;;;;;5092961;28;20024;-86
2022/07/13 06:33:52;;;;;;;4.68;2.08;;;22.30;86.50;;;;;;5084178;28;20039;-84
2022/07/13 06:36:19;;;;;;;3.08;1.77;;;22.20;88.10;;;;;;5083748;28;20107;-82
2022/07/13 06:38:45;;;;;;;3.88;1.77;;;22.10;85.90;;;;;;5082310;28;20028;-81
2022/07/13 06:41:10;;;;;;;4.10;2.40;;;22.50;88.90;;;;;;5099399;28;20113;-89
2022/07/13 06:43:36;;;;;;;6.38;1.70;;;22.80;85.40;;;;;;5083705;28;20048;-82
2022/07/13 06:46:02;;;;;;;10.80;2.42;;;22.80;85.10;;;;;;5083592;28;20032;-85
2022/07/13 06:48:28;;;;;;;3.15;2.08;;;23.20;83.50;;;;;;5091554;28;20020;-83
2022/07/13 06:50:54;;;;;;;5.40;2.47;;;23.30;84.10;;;;;;5092408;28;20028;-81
2022/07/13 06:53:19;;;;;;;6.80;1.70;;;23.40;82.70;;;;;;5092178;28;20019;-83
2022/07/13 06:55:45;;;;;;;2.67;1.90;;;23.70;82.40;;;;;;5089040;28;20115;-87
2022/07/13 06:58:11;;;;;;;3.30;1.88;;;23.60;81.90;;;;;;5091055;28;20024;-85
2022/07/13 07:00:37;;;;;;;3.53;2.28;;;23.70;79.60;;;;;;5092182;28;20386;-86
2022/07/13 07:03:03;;;;;;;5.20;1.70;;;23.80;79.60;;;;;;5080724;28;20046;-87
2022/07/13 07:05:29;;;;;;;2.55;1.80;;;24.00;78.60;;;;;;5082586;28;20539;-86
2022/07/13 07:07:54;;;;;;;3.15;1.63;;;24.10;77.40;;;;;;5091140;28;20028;-88
2022/07/13 07:10:20;;;;;;;3.97;2.03;;;24.00;78.10;;;;;;5090824;28;20027;-86
2022/07/13 07:12:46;;;;;;;3.40;1.73;;;23.90;77.10;;;;;;5090976;28;20031;-86
2022/07/13 07:15:12;;;;;;;3.72;1.80;;;24.10;77.80;;;;;;5088751;28;20031;-85
2022/07/13 07:17:48;;;;;;;3.35;1.80;;;24.10;77.60;;;;;;5086914;28;20382;-87
2022/07/13 07:20:15;;;;;;;8.60;2.05;;;24.30;75.80;;;;;;5090970;28;20032;-85
2022/07/13 07:22:42;;;;;;;6.93;2.03;;;24.20;75.00;;;;;;5077538;28;20032;-82
2022/07/13 07:25:09;;;;;;;5.10;1.90;;;24.20;75.00;;;;;;5090866;28;20107;-87
2022/07/13 07:27:35;;;;;;;5.43;1.70;;;24.30;75.70;;;;;;5089464;28;20028;-85
2022/07/13 07:30:02;;;;;;;3.65;1.90;;;24.40;75.40;;;;;;5091438;28;20541;-84
2022/07/13 07:32:27;;;;;;;2.58;1.67;;;24.60;74.70;;;;;;5089007;28;20032;-84
2022/07/13 07:34:53;;;;;;;4.13;1.90;;;24.70;73.20;;;;;;5089804;28;20032;-82
2022/07/13 07:37:20;;;;;;;4.82;1.92;;;24.60;73.60;;;;;;5090217;28;20020;-85
2022/07/13 07:39:47;;;;;;;2.25;1.63;;;25.10;74.50;;;;;;5092074;28;20513;-86
2022/07/13 07:42:13;;;;;;;3.03;1.52;;;25.40;73.40;;;;;;5092709;28;20389;-87
2022/07/13 07:44:39;;;;;;;2.55;1.80;;;25.40;73.80;;;;;;5093042;28;20063;-87
2022/07/13 07:47:05;;;;;;;3.67;1.88;;;25.60;72.30;;;;;;5092416;28;20020;-83
2022/07/13 07:49:31;;;;;;;2.53;1.52;;;25.40;70.20;;;;;;5082024;28;20017;-88
2022/07/13 07:51:56;;;;;;;1.95;1.40;;;25.50;70.10;;;;;;5087568;28;20024;-83
2022/07/13 07:54:22;;;;;;;2.17;1.42;;;25.30;68.70;;;;;;5093730;28;20110;-86
2022/07/13 07:56:48;;;;;;;2.70;1.40;;;25.40;68.90;;;;;;5087079;28;20035;-86
2022/07/13 07:59:14;;;;;;;6.45;1.67;;;25.80;69.80;;;;;;5086376;28;20020;-84
2022/07/13 08:01:43;;;;;;;2.83;1.67;;;25.80;70.70;;;;;;5086964;28;20047;-84
2022/07/13 08:04:09;;;;;;;2.95;1.38;;;25.60;68.70;;;;;;5092104;28;20028;-82
2022/07/13 08:06:35;;;;;;;2.28;1.40;;;25.70;67.70;;;;;;5095065;28;20031;-80
2022/07/13 08:09:01;;;;;;;5.30;1.92;;;25.80;67.10;;;;;;5095117;28;20031;-81
2022/07/13 08:11:27;;;;;;;4.45;1.70;;;25.80;67.90;;;;;;5095529;28;20019;-83
2022/07/13 08:13:53;;;;;;;4.93;1.80;;;26.00;67.40;;;;;;5092133;28;20020;-83
2022/07/13 08:16:20;;;;;;;5.63;2.20;;;25.80;67.10;;;;;;5093755;28;20485;-79
2022/07/13 08:18:46;;;;;;;4.72;1.67;;;25.90;68.00;;;;;;5096036;28;20024;-69
2022/07/13 08:21:12;;;;;;;7.97;2.50;;;26.10;69.70;;;;;;5089988;28;20123;-66
2022/07/13 08:23:51;;;;;;;2.63;1.50;;;26.40;69.50;;;;;;5090578;28;20020;-77
2022/07/13 08:26:24;;;;;;;4.45;1.52;;;26.40;65.30;;;;;;5095544;28;20032;-75
2022/07/13 08:28:52;;;;;;;2.22;1.58;;;26.40;65.80;;;;;;5086156;28;20479;-72
2022/07/13 08:31:22;;;;;;;1.63;1.40;;;26.30;65.40;;;;;;5095111;28;20638;-73
2022/07/13 08:39:23;;;;;;;2.03;1.13;;;26.70;65.00;;;;;;5082452;28;20021;-84
2022/07/13 08:41:49;;;;;;;3.25;1.27;;;27.00;64.90;;;;;;5093351;28;20382;-69
2022/07/13 08:44:15;;;;;;;4.00;1.25;;;27.00;64.10;;;;;;5090994;28;20020;-63
2022/07/13 08:46:41;;;;;;;2.25;1.50;;;26.70;63.50;;;;;;5083877;28;20063;-82
2022/07/13 08:49:08;;;;;;;4.18;1.33;;;26.70;65.70;;;;;;5094121;28;20047;-80
2022/07/13 08:51:34;;;;;;;1.75;1.25;;;26.80;65.60;;;;;;5089785;28;20024;-82
2022/07/13 08:54:02;;;;;;;1.00;0.85;;;27.00;65.00;;;;;;5092652;28;20077;-85
2022/07/13 08:56:28;;;;;;;3.20;1.10;;;27.10;62.10;;;;;;5091880;28;20107;-78
2022/07/13 08:58:54;;;;;;;2.38;1.08;;;27.10;61.90;;;;;;5091959;28;20438;-80
2022/07/13 09:01:20;;;;;;;4.13;1.20;;;27.10;62.20;;;;;;5086746;28;20045;-76
2022/07/13 09:03:47;;;;;;;1.63;1.20;;;27.20;65.00;;;;;;5081718;28;20112;-76
2022/07/13 09:06:38;;;;;;;3.40;1.40;;;27.50;62.20;;;;;;5082332;28;20035;-80
2022/07/13 09:09:04;;;;;;;4.63;1.15;;;27.40;61.90;;;;;;5090735;28;20021;-88
2022/07/13 09:11:30;;;;;;;3.15;0.93;;;27.30;62.70;;;;;;5093143;28;20020;-84
2022/07/13 09:13:56;;;;;;;0.98;0.80;;;27.20;61.80;;;;;;5092213;28;20028;-78
2022/07/13 09:16:24;;;;;;;1.52;0.98;;;27.00;59.80;;;;;;5093238;28;20051;-73
2022/07/13 09:19:09;;;;;;;1.45;1.15;;;27.00;60.10;;;;;;5092494;28;20078;-87
2022/07/13 09:21:34;;;;;;;0.70;0.70;;;27.30;61.20;;;;;;5091234;28;20044;-74
2022/07/13 09:24:02;;;;;;;4.53;0.95;;;26.90;58.00;;;;;;5078072;28;20016;-80
2022/07/13 09:26:45;;;;;;;12.93;1.02;;;26.90;59.90;;;;;;5093236;28;20048;-83
2022/07/13 09:29:11;;;;;;;1.40;1.00;;;27.10;59.80;;;;;;5087727;28;20039;-85
2022/07/13 09:31:53;;;;;;;1.95;0.98;;;27.10;60.00;;;;;;5092532;28;20031;-82
2022/07/13 09:34:19;;;;;;;1.20;1.00;;;;;;;;;;5081320;28;20036;-81
2022/07/13 09:36:45;;;;;;;1.13;0.75;;;27.40;59.30;;;;;;5086540;28;20024;-82
2022/07/13 09:39:11;;;;;;;1.52;0.93;;;27.70;61.00;;;;;;5090681;28;20027;-82
2022/07/13 09:41:37;;;;;;;1.75;1.00;;;27.70;60.50;;;;;;5084928;28;20039;-80
2022/07/13 09:47:02;;;;;;;3.00;1.00;;;27.30;59.10;;;;;;5090125;28;20494;-80
2022/07/13 09:49:39;;;;;;;3.30;0.90;;;27.50;60.10;;;;;;5092672;28;20103;-81
2022/07/13 09:52:07;;;;;;;0.80;0.77;;;27.40;59.00;;;;;;5093084;28;20111;-84
2022/07/13 09:54:35;;;;;;;11.73;0.88;;;27.60;58.80;;;;;;5086557;28;20023;-84
2022/07/13 09:57:04;;;;;;;1.67;1.05;;;27.10;58.10;;;;;;5091173;28;20012;-80
2022/07/13 09:59:30;;;;;;;4.05;0.95;;;27.40;58.70;;;;;;5093356;28;20036;-85
2022/07/13 10:01:57;;;;;;;2.13;0.88;;;27.10;57.90;;;;;;5092953;28;20036;-78
2022/07/13 10:04:24;;;;;;;1.63;0.90;;;27.40;57.20;;;;;;5093170;28;20107;-86
2022/07/13 10:06:50;;;;;;;2.70;1.10;;;27.50;57.90;;;;;;5093038;28;20466;-84
2022/07/13 10:11:51;;;;;;;0.85;0.85;;;;;;;;;;5093212;28;20032;-85
2022/07/13 10:14:18;;;;;;;3.40;1.10;;;28.00;58.80;;;;;;5093124;28;20035;-85
2022/07/13 10:16:45;;;;;;;3.40;1.10;;;27.80;60.30;;;;;;5093318;28;20085;-86
2022/07/13 10:19:12;;;;;;;1.85;1.00;;;27.90;60.20;;;;;;5084078;28;20012;-86
2022/07/13 10:22:05;;;;;;;4.13;1.00;;;27.80;56.80;;;;;;5092048;28;20034;-86
2022/07/13 10:24:31;;;;;;;1.00;0.90;;;27.90;56.00;;;;;;5093339;28;20032;-85
2022/07/13 10:27:26;;;;;;;1.02;0.90;;;27.80;57.50;;;;;;5092180;28;20016;-79
2022/07/13 10:29:54;;;;;;;1.45;0.85;;;28.00;60.10;;;;;;5092631;28;20497;-75
2022/07/13 10:32:25;;;;;;;1.50;1.00;;;27.90;58.60;;;;;;5092517;28;20032;-84
2022/07/13 10:35:00;;;;;;;2.97;1.20;;;28.10;59.00;;;;;;5092813;28;20032;-86
2022/07/13 10:37:27;;;;;;;2.45;0.93;;;28.20;57.00;;;;;;5089977;28;20016;-87
2022/07/13 10:40:12;;;;;;;2.58;0.60;;;28.30;57.40;;;;;;5092251;28;20020;-85
2022/07/13 10:43:00;;;;;;;2.65;1.10;;;;;;;;;;5089943;28;20034;-84
2022/07/13 10:48:02;;;;;;;1.45;1.00;;;28.70;56.30;;;;;;5091825;28;20020;-85
2022/07/13 10:50:34;;;;;;;0.80;0.70;;;28.60;57.20;;;;;;5073357;28;20038;-83
2022/07/13 10:53:01;;;;;;;6.00;1.20;;;28.20;54.90;;;;;;5079048;28;20028;-83
2022/07/13 10:55:34;;;;;;;3.25;0.80;;;28.00;56.70;;;;;;5092819;28;20074;-84
2022/07/13 10:58:19;;;;;;;1.23;0.70;;;28.30;55.90;;;;;;5092405;28;20101;-85
2022/07/13 11:00:45;;;;;;;3.65;1.02;;;28.30;56.50;;;;;;5092511;28;20451;-84
2022/07/13 11:03:27;;;;;;;1.05;0.98;;;28.40;56.70;;;;;;5092002;28;20123;-74
2022/07/13 11:06:09;;;;;;;1.73;1.05;;;28.20;57.80;;;;;;5092186;28;20047;-84
2022/07/13 11:08:35;;;;;;;1.20;0.88;;;27.60;56.30;;;;;;5092587;28;20410;-86
2022/07/13 11:11:17;;;;;;;1.65;0.88;;;27.40;55.40;;;;;;5092966;28;20123;-84
2022/07/13 11:13:45;;;;;;;2.92;1.00;;;27.50;54.90;;;;;;5092549;28;20020;-85
2022/07/13 11:16:34;;;;;;;1.45;0.85;;;28.00;55.00;;;;;;5092365;28;20489;-83
2022/07/13 11:18:59;;;;;;;1.08;0.88;;;28.10;53.60;;;;;;5092596;28;20402;-85
2022/07/13 11:21:25;;;;;;;1.70;0.82;;;28.20;53.50;;;;;;5092053;28;20039;-85
2022/07/13 11:26:51;;;;;;;2.47;0.80;;;28.40;54.20;;;;;;5086587;28;20024;-83
2022/07/13 11:29:44;;;;;;;1.90;0.75;;;28.20;55.30;;;;;;5092602;28;20032;-85
2022/07/13 11:32:10;;;;;;;0.60;0.60;;;28.00;53.80;;;;;;5093111;28;20043;-85
2022/07/13 11:34:37;;;;;;;3.22;0.90;;;27.50;52.60;;;;;;5095857;28;20039;-80
2022/07/13 11:37:04;;;;;;;3.20;1.13;;;27.90;54.30;;;;;;5096296;28;20020;-68
2022/07/13 11:39:33;;;;;;;1.25;0.70;;;28.00;53.80;;;;;;5094521;28;20024;-82
2022/07/13 11:42:01;;;;;;;2.10;0.95;;;28.10;53.20;;;;;;5095675;28;20027;-82
2022/07/13 11:44:31;;;;;;;2.35;0.80;;;28.40;55.20;;;;;;5094950;28;20114;-83
2022/07/13 11:46:59;;;;;;;0.57;0.57;;;28.30;52.60;;;;;;5096193;28;20035;-82
2022/07/13 11:49:27;;;;;;;2.72;0.90;;;28.20;52.30;;;;;;5094148;28;20133;-83
2022/07/13 11:51:53;;;;;;;1.02;0.65;;;28.30;54.40;;;;;;5094684;28;20521;-82
2022/07/13 11:54:21;;;;;;;2.30;0.80;;;28.30;53.10;;;;;;5093531;28;20076;-77
2022/07/13 11:56:50;;;;;;;2.17;1.20;;;28.50;55.30;;;;;;5090386;28;20477;-83
2022/07/13 11:59:34;;;;;;;1.77;0.95;;;28.60;56.60;;;;;;5093997;28;20024;-75
2022/07/13 12:02:02;;;;;;;1.63;1.00;;;28.30;54.50;;;;;;5094429;28;20047;-63
2022/07/13 12:04:28;;;;;;;1.40;0.63;;;28.40;57.00;;;;;;5092186;28;20374;-83
2022/07/13 12:07:13;;;;;;;0.70;0.70;;;28.40;56.60;;;;;;5095210;28;20039;-83
2022/07/13 12:09:55;;;;;;;0.60;0.57;;;28.60;57.80;;;;;;5094962;28;20024;-82
2022/07/13 12:12:24;;;;;;;9.35;5.85;;;28.40;55.00;;;;;;5085011;28;20028;-82
2022/07/13 12:14:55;;;;;;;4.07;1.48;;;28.30;55.80;;;;;;5095198;28;20024;-71
2022/07/13 12:17:22;;;;;;;1.60;0.70;;;28.30;53.80;;;;;;5095637;28;20058;-84
2022/07/13 12:19:49;;;;;;;1.88;0.70;;;28.40;55.10;;;;;;5093399;28;20024;-84
2022/07/13 12:22:19;;;;;;;2.83;1.00;;;28.50;55.20;;;;;;5093629;28;20032;-72
2022/07/13 12:24:47;;;;;;;0.75;0.60;;;28.40;54.00;;;;;;5094702;28;20028;-83
2022/07/13 12:27:27;;;;;;;1.98;0.95;;;28.20;52.40;;;;;;5094681;28;20114;-83
2022/07/13 12:30:25;;;;;;;0.57;0.45;;;28.30;52.10;;;;;;5094365;28;20489;-84
2022/07/13 12:33:02;;;;;;;2.72;0.80;;;28.30;52.00;;;;;;5031048;28;20052;-86
2022/07/13 12:35:36;;;;;;;1.27;0.82;;;28.30;53.60;;;;;;5032545;28;20030;-81
2022/07/13 12:38:04;;;;;;;0.50;0.50;;;28.20;52.50;;;;;;5030345;28;20112;-82
2022/07/13 12:40:39;;;;;;;0.65;0.55;;;28.20;53.20;;;;;;5031364;28;20067;-82
2022/07/13 12:43:15;;;;;;;0.95;0.70;;;28.40;55.30;;;;;;5023277;28;20758;-83
2022/07/13 12:45:43;;;;;;;0.63;0.63;;;28.20;51.70;;;;;;5031580;28;20028;-83
2022/07/13 12:48:13;;;;;;;1.95;0.63;;;28.10;51.50;;;;;;5032774;28;20541;-84
2022/07/13 12:50:39;;;;;;;1.17;0.77;;;28.20;55.70;;;;;;5032292;28;20014;-82
2022/07/13 12:53:05;;;;;;;2.28;0.77;;;28.20;53.60;;;;;;5031998;28;20026;-82
2022/07/13 12:55:52;;;;;;;1.35;0.65;;;28.20;51.60;;;;;;5027542;28;20116;-83
2022/07/13 12:58:19;;;;;;;1.85;0.80;;;28.10;52.80;;;;;;5020706;28;20053;-84
2022/07/13 13:00:45;;;;;;;3.92;0.90;;;28.40;53.70;;;;;;5032281;28;20048;-83
2022/07/13 13:03:11;;;;;;;1.50;0.88;;;28.60;53.70;;;;;;5032020;28;20072;-80
2022/07/13 13:05:37;;;;;;;1.15;0.57;;;28.70;52.80;;;;;;5032115;28;20743;-83
2022/07/13 13:08:03;;;;;;;0.77;0.60;;;28.50;53.60;;;;;;5052118;28;20371;-82